createdAt,value
2022-09-12T00:01:27.955Z,97439.63
2022-09-12T00:03:58.607Z,97437.97
2022-09-12T00:06:30.883Z,97433.66
2022-09-12T00:09:01.660Z,97437.13
2022-09-12T00:11:30.898Z,97434.66
2022-09-12T00:14:00.863Z,97432.97
2022-09-12T00:16:31.604Z,97433.81
2022-09-12T00:19:00.597Z,97432.16
2022-09-12T00:21:30.693Z,97438.31
2022-09-12T00:23:59.372Z,97435.81
2022-09-12T00:26:28.290Z,97429.81
2022-09-12T00:28:56.925Z,97431.66
2022-09-12T00:31:27.092Z,97425.50
2022-09-12T00:33:57.706Z,97426.31
2022-09-12T00:36:27.465Z,97423.66
2022-09-12T00:38:57.574Z,97419.31
2022-09-12T00:41:27.901Z,97417.66
2022-09-12T00:43:58.492Z,97411.34
2022-09-12T00:46:31.885Z,97405.34
2022-09-12T00:49:03.256Z,97408.00
2022-09-12T00:51:34.342Z,97407.19
2022-09-12T00:54:07.411Z,97410.69
2022-09-12T00:56:37.077Z,97415.34
2022-09-12T00:59:08.478Z,97409.19
2022-09-12T01:01:37.681Z,97403.00
2022-09-12T01:04:06.416Z,97404.00
2022-09-12T01:06:37.769Z,97412.16
2022-09-12T01:09:08.697Z,97401.50
2022-09-12T01:11:38.885Z,97401.69
2022-09-12T01:14:08.025Z,97398.19
2022-09-12T01:16:37.179Z,97398.19
2022-09-12T01:19:20.212Z,97406.19
2022-09-12T01:21:58.473Z,97399.03
2022-09-12T01:24:48.024Z,97396.53
2022-09-12T01:27:38.690Z,97395.69
2022-09-12T01:30:24.901Z,97388.69
2022-09-12T01:33:07.148Z,97391.53
2022-09-12T01:35:40.990Z,97396.84
2022-09-12T01:38:13.666Z,97399.50
2022-09-12T01:40:48.004Z,97398.69
2022-09-12T01:43:21.251Z,97396.19
2022-09-12T01:45:57.937Z,97396.19
2022-09-12T01:48:29.844Z,97390.00
2022-09-12T01:51:00.479Z,97389.16
2022-09-12T01:53:30.931Z,97379.50
2022-09-12T01:56:03.619Z,97379.69
2022-09-12T01:58:39.974Z,97373.34
2022-09-12T02:01:13.788Z,97378.00
2022-09-12T02:03:46.087Z,97377.19
2022-09-12T02:06:20.399Z,97372.84
2022-09-12T02:08:52.399Z,97372.03
2022-09-12T02:11:21.406Z,97377.34
2022-09-12T02:13:55.049Z,97368.69
2022-09-12T02:16:30.659Z,97366.03
2022-09-12T02:19:02.925Z,97367.69
2022-09-12T02:21:33.079Z,97367.88
2022-09-12T02:24:03.786Z,97358.22
2022-09-12T02:26:35.331Z,97357.38
2022-09-12T02:29:04.896Z,97359.03
2022-09-12T02:31:39.917Z,97357.38
2022-09-12T02:34:11.668Z,97353.06
2022-09-12T02:36:50.005Z,97358.38
2022-09-12T02:39:21.255Z,97352.38
2022-09-12T02:41:52.026Z,97347.06
2022-09-12T02:44:20.826Z,97348.91
2022-09-12T02:46:52.894Z,97337.41
2022-09-12T02:49:21.581Z,97343.75
2022-09-12T02:51:50.683Z,97344.75
2022-09-12T02:54:20.218Z,97346.41
2022-09-12T02:56:48.660Z,97343.91
2022-09-12T02:59:19.171Z,97343.06
2022-09-12T03:02:10.554Z,97341.41
2022-09-12T03:04:48.922Z,97345.06
2022-09-12T03:07:22.144Z,97343.41
2022-09-12T03:09:58.181Z,97348.72
2022-09-12T03:12:35.638Z,97347.06
2022-09-12T03:15:17.038Z,97347.06
2022-09-12T03:18:02.009Z,97343.56
2022-09-12T03:20:40.822Z,97341.91
2022-09-12T03:23:15.664Z,97334.91
2022-09-12T03:25:48.608Z,97343.72
2022-09-12T03:28:17.971Z,97340.41
2022-09-12T03:30:47.733Z,97343.06
2022-09-12T03:33:19.199Z,97345.72
2022-09-12T03:35:48.380Z,97341.41
2022-09-12T03:38:16.834Z,97340.56
2022-09-12T03:40:47.779Z,97335.25
2022-09-12T03:43:17.794Z,97331.91
2022-09-12T03:45:46.259Z,97337.25
2022-09-12T03:48:14.963Z,97341.72
2022-09-12T03:50:44.790Z,97348.88
2022-09-12T03:53:17.086Z,97347.22
2022-09-12T03:55:46.924Z,97343.56
2022-09-12T03:58:15.306Z,97344.56
2022-09-12T04:00:44.338Z,97344.75
2022-09-12T04:03:12.792Z,97344.75
2022-09-12T04:05:41.213Z,97345.75
2022-09-12T04:08:11.106Z,97340.59
2022-09-12T04:10:39.610Z,97335.44
2022-09-12T04:13:08.119Z,97337.25
2022-09-12T04:15:36.565Z,97347.91
2022-09-12T04:18:06.249Z,97341.91
2022-09-12T04:20:34.768Z,97342.91
2022-09-12T04:23:03.226Z,97344.72
2022-09-12T04:25:33.020Z,97351.03
2022-09-12T04:28:01.515Z,97341.41
2022-09-12T04:30:29.957Z,97353.88
2022-09-12T04:32:58.389Z,97347.72
2022-09-12T04:35:27.494Z,97344.22
2022-09-12T04:37:55.865Z,97341.56
2022-09-12T04:40:24.354Z,97339.75
2022-09-12T04:42:56.046Z,97342.56
2022-09-12T04:45:24.545Z,97347.06
2022-09-12T04:47:53.137Z,97345.38
2022-09-12T04:50:21.568Z,97343.56
2022-09-12T04:52:51.087Z,97347.22
2022-09-12T04:55:19.747Z,97341.91
2022-09-12T04:57:48.288Z,97346.38
2022-09-12T05:00:18.420Z,97347.38
2022-09-12T05:02:46.937Z,97348.38
2022-09-12T05:05:15.487Z,97345.72
2022-09-12T05:07:43.995Z,97354.69
2022-09-12T05:10:12.692Z,97347.88
2022-09-12T05:12:41.249Z,97359.16
2022-09-12T05:15:10.835Z,97359.34
2022-09-12T05:17:40.609Z,97355.69
2022-09-12T05:20:12.789Z,97353.19
2022-09-12T05:22:41.272Z,97355.00
2022-09-12T05:25:10.904Z,97350.69
2022-09-12T05:27:39.485Z,97353.50
2022-09-12T05:30:09.449Z,97356.16
2022-09-12T05:32:37.995Z,97355.34
2022-09-12T05:35:08.386Z,97368.63
2022-09-12T05:37:37.347Z,97366.81
2022-09-12T05:40:08.608Z,97372.97
2022-09-12T05:42:37.175Z,97374.09
2022-09-12T05:45:06.748Z,97370.63
2022-09-12T05:47:35.485Z,97373.28
2022-09-12T05:50:10.707Z,97374.09
2022-09-12T05:52:40.492Z,97377.75
2022-09-12T05:55:09.775Z,97381.94
2022-09-12T05:57:40.499Z,97380.78
2022-09-12T06:00:10.939Z,97382.09
2022-09-12T06:02:41.920Z,97378.59
2022-09-12T06:05:10.582Z,97379.25
2022-09-12T06:07:40.436Z,97388.53
2022-09-12T06:10:11.946Z,97389.03
2022-09-12T06:12:40.544Z,97386.22
2022-09-12T06:15:10.614Z,97377.25
2022-09-12T06:17:39.146Z,97373.75
2022-09-12T06:20:08.786Z,97373.75
2022-09-12T06:22:37.496Z,97377.25
2022-09-12T06:25:08.976Z,97379.91
2022-09-12T06:27:37.390Z,97379.91
2022-09-12T06:30:07.037Z,97378.25
2022-09-12T06:32:36.546Z,97388.88
2022-09-12T06:35:09.236Z,97387.88
2022-09-12T06:37:37.793Z,97383.56
2022-09-12T06:40:10.188Z,97388.88
2022-09-12T06:42:38.670Z,97381.91
2022-09-12T06:45:08.201Z,97373.91
2022-09-12T06:47:37.188Z,97376.59
2022-09-12T06:50:06.664Z,97380.06
2022-09-12T06:52:35.459Z,97382.22
2022-09-12T06:55:04.035Z,97371.59
2022-09-12T06:57:36.454Z,97389.19
2022-09-12T07:00:05.635Z,97385.72
2022-09-12T07:02:34.178Z,97382.53
2022-09-12T07:05:02.769Z,97374.41
2022-09-12T07:07:34.324Z,97393.84
2022-09-12T07:10:08.380Z,97385.88
2022-09-12T07:12:39.807Z,97390.34
2022-09-12T07:15:09.556Z,97388.53
2022-09-12T07:17:38.195Z,97385.72
2022-09-12T07:20:07.755Z,97377.91
2022-09-12T07:22:36.240Z,97387.03
2022-09-12T07:25:05.123Z,97373.56
2022-09-12T07:27:33.538Z,97381.53
2022-09-12T07:30:03.347Z,97385.88
2022-09-12T07:32:31.997Z,97388.53
2022-09-12T07:35:00.524Z,97376.91
2022-09-12T07:37:31.593Z,97387.53
2022-09-12T07:40:00.157Z,97377.75
2022-09-12T07:42:37.260Z,97383.88
2022-09-12T07:45:08.904Z,97387.53
2022-09-12T07:47:39.749Z,97385.88
2022-09-12T07:50:09.002Z,97384.03
2022-09-12T07:52:37.434Z,97385.56
2022-09-12T07:55:09.516Z,97382.91
2022-09-12T07:57:39.142Z,97381.22
2022-09-12T08:00:10.913Z,97383.09
2022-09-12T08:02:41.961Z,97382.44
2022-09-12T08:05:10.855Z,97389.59
2022-09-12T08:07:39.349Z,97392.41
2022-09-12T08:10:08.969Z,97391.88
2022-09-12T08:12:37.577Z,97395.53
2022-09-12T08:15:07.035Z,97398.38
2022-09-12T08:17:36.806Z,97396.84
2022-09-12T08:20:05.751Z,97405.66
2022-09-12T08:22:34.637Z,97403.16
2022-09-12T08:25:03.151Z,97398.69
2022-09-12T08:27:31.567Z,97403.16
2022-09-12T08:30:00.530Z,97405.47
2022-09-12T08:32:29.059Z,97406.78
2022-09-12T08:34:59.731Z,97400.31
2022-09-12T08:37:31.207Z,97401.50
2022-09-12T08:39:59.696Z,97403.84
2022-09-12T08:42:39.363Z,97405.03
2022-09-12T08:45:18.768Z,97411.69
2022-09-12T08:47:48.880Z,97403.38
2022-09-12T08:50:20.788Z,97393.41
2022-09-12T08:52:58.111Z,97400.09
2022-09-12T08:55:33.399Z,97403.91
2022-09-12T08:58:03.344Z,97401.91
2022-09-12T09:00:40.556Z,97404.41
2022-09-12T09:03:32.036Z,97399.25
2022-09-12T09:06:15.316Z,97393.59
2022-09-12T09:08:51.174Z,97400.75
2022-09-12T09:11:30.558Z,97395.28
2022-09-12T09:14:24.987Z,97404.09
2022-09-12T09:16:55.003Z,97397.78
2022-09-12T09:19:28.038Z,97399.44
2022-09-12T09:22:00.040Z,97401.94
2022-09-12T09:24:33.860Z,97398.28
2022-09-12T09:27:11.094Z,97405.09
2022-09-12T09:29:54.146Z,97393.63
2022-09-12T09:32:27.691Z,97396.94
2022-09-12T09:34:56.494Z,97395.09
2022-09-12T09:37:32.282Z,97388.13
2022-09-12T09:40:04.230Z,97393.94
2022-09-12T09:42:44.750Z,97391.13
2022-09-12T09:45:16.143Z,97388.28
2022-09-12T09:47:46.761Z,97380.47
2022-09-12T09:50:17.702Z,97376.97
2022-09-12T09:52:48.539Z,97378.66
2022-09-12T09:55:22.119Z,97378.47
2022-09-12T09:57:52.394Z,97374.00
2022-09-12T10:00:28.707Z,97368.50
2022-09-12T10:03:17.312Z,97373.84
2022-09-12T10:05:47.910Z,97373.50
2022-09-12T10:08:28.649Z,97375.66
2022-09-12T10:11:06.666Z,97368.19
2022-09-12T10:13:41.736Z,97370.53
2022-09-12T10:16:20.387Z,97369.38
2022-09-12T10:18:51.019Z,97364.88
2022-09-12T10:21:23.528Z,97363.72
2022-09-12T10:24:01.013Z,97361.72
2022-09-12T10:26:34.049Z,97351.78
2022-09-12T10:29:06.571Z,97355.09
2022-09-12T10:31:43.111Z,97348.78
2022-09-12T10:34:21.894Z,97356.25
2022-09-12T10:36:50.365Z,97355.94
2022-09-12T10:39:20.830Z,97358.25
2022-09-12T10:41:49.424Z,97350.94
2022-09-12T10:44:19.516Z,97357.94
2022-09-12T10:46:49.202Z,97353.44
2022-09-12T10:49:27.881Z,97357.09
2022-09-12T10:51:59.650Z,97356.09
2022-09-12T10:54:29.741Z,97346.44
2022-09-12T10:57:30.645Z,97341.94
2022-09-12T11:00:12.740Z,97335.47
2022-09-12T11:03:00.041Z,97333.47
2022-09-12T11:05:45.405Z,97329.47
2022-09-12T11:08:21.922Z,97325.97
2022-09-12T11:10:57.090Z,97334.63
2022-09-12T11:13:38.468Z,97334.44
2022-09-12T11:16:23.142Z,97321.81
2022-09-12T11:19:10.767Z,97323.47
2022-09-12T11:21:54.780Z,97325.13
2022-09-12T11:24:48.354Z,97328.44
2022-09-12T11:27:30.955Z,97322.78
2022-09-12T11:30:00.715Z,97320.63
2022-09-12T11:32:51.052Z,97316.75
2022-09-12T11:35:25.733Z,97328.25
2022-09-12T11:38:25.686Z,97316.59
2022-09-12T11:40:55.970Z,97318.25
2022-09-12T11:43:36.932Z,97312.75
2022-09-12T11:46:14.739Z,97315.41
2022-09-12T11:48:54.715Z,97315.91
2022-09-12T11:51:27.434Z,97313.06
2022-09-12T11:54:02.575Z,97313.56
2022-09-12T11:56:31.082Z,97303.56
2022-09-12T11:59:06.218Z,97312.22
2022-09-12T12:01:46.370Z,97306.72
2022-09-12T12:04:20.457Z,97307.38
2022-09-12T12:06:53.849Z,97311.72
2022-09-12T12:09:23.460Z,97313.19
2022-09-12T12:11:56.057Z,97303.38
2022-09-12T12:14:30.615Z,97309.38
2022-09-12T12:16:59.610Z,97300.19
2022-09-12T12:19:34.305Z,97301.84
2022-09-12T12:22:16.987Z,97302.53
2022-09-12T12:25:06.803Z,97303.00
2022-09-12T12:27:51.676Z,97302.00
2022-09-12T12:31:01.017Z,97293.16
2022-09-12T12:34:15.631Z,97288.50
2022-09-12T12:36:46.484Z,97285.69
2022-09-12T12:40:02.878Z,97281.19
2022-09-12T12:43:05.151Z,97286.34
2022-09-12T12:46:02.137Z,97277.34
2022-09-12T12:48:55.454Z,97278.84
2022-09-12T12:51:46.876Z,97272.50
2022-09-12T12:54:31.817Z,97258.19
2022-09-12T12:57:18.326Z,97265.81
2022-09-12T12:59:53.258Z,97258.47
2022-09-12T13:02:25.387Z,97264.47
2022-09-12T13:04:54.151Z,97249.13
2022-09-12T13:07:30.529Z,97247.94
2022-09-12T13:10:02.035Z,97235.63
2022-09-12T13:12:33.928Z,97235.28
2022-09-12T13:15:03.910Z,97230.59
2022-09-12T13:17:38.585Z,97225.94
2022-09-12T13:20:29.261Z,97221.25
2022-09-12T13:22:59.496Z,97219.41
2022-09-12T13:25:32.104Z,97223.56
2022-09-12T13:28:03.674Z,97220.72
2022-09-12T13:30:33.814Z,97220.50
2022-09-12T13:33:19.606Z,97219.50
2022-09-12T13:36:06.921Z,97214.81
2022-09-12T13:38:40.696Z,97213.81
2022-09-12T13:41:23.036Z,97211.81
2022-09-12T13:43:52.251Z,97215.13
2022-09-12T13:46:26.235Z,97211.44
2022-09-12T13:48:55.080Z,97208.59
2022-09-12T13:51:26.436Z,97198.75
2022-09-12T13:53:57.615Z,97195.09
2022-09-12T13:56:27.719Z,97194.91
2022-09-12T13:58:58.124Z,97203.75
2022-09-12T14:01:38.938Z,97206.06
2022-09-12T14:04:34.268Z,97202.38
2022-09-12T14:07:10.057Z,97197.88
2022-09-12T14:09:41.663Z,97189.69
2022-09-12T14:12:25.236Z,97194.03
2022-09-12T14:14:54.464Z,97203.69
2022-09-12T14:17:29.752Z,97197.16
2022-09-12T14:19:59.462Z,97198.81
2022-09-12T14:22:29.835Z,97193.66
2022-09-12T14:24:59.603Z,97189.16
2022-09-12T14:27:33.136Z,97203.97
2022-09-12T14:30:03.223Z,97194.97
2022-09-12T14:32:31.773Z,97191.94
2022-09-12T14:35:20.369Z,97179.44
2022-09-12T14:37:50.985Z,97173.72
2022-09-12T14:40:22.382Z,97180.72
2022-09-12T14:42:55.980Z,97176.22
2022-09-12T14:45:29.926Z,97167.22
2022-09-12T14:47:59.581Z,97168.03
2022-09-12T14:50:31.276Z,97168.69
2022-09-12T14:53:07.930Z,97163.16
2022-09-12T14:55:43.910Z,97159.50
2022-09-12T14:58:23.644Z,97159.13
2022-09-12T15:00:57.801Z,97153.66
2022-09-12T15:03:30.058Z,97150.16
2022-09-12T15:06:00.664Z,97151.81
2022-09-12T15:08:38.812Z,97157.97
2022-09-12T15:11:08.593Z,97149.78
2022-09-12T15:13:43.023Z,97157.59
2022-09-12T15:16:13.229Z,97153.09
2022-09-12T15:18:42.324Z,97156.41
2022-09-12T15:21:13.758Z,97158.91
2022-09-12T15:23:44.688Z,97152.56
2022-09-12T15:26:14.611Z,97151.38
2022-09-12T15:28:46.252Z,97146.84
2022-09-12T15:31:19.533Z,97148.50
2022-09-12T15:33:48.165Z,97150.00
2022-09-12T15:36:19.044Z,97147.31
2022-09-12T15:38:48.858Z,97146.31
2022-09-12T15:41:19.473Z,97141.97
2022-09-12T15:44:08.609Z,97134.44
2022-09-12T15:46:43.115Z,97136.94
2022-09-12T15:49:13.184Z,97135.91
2022-09-12T15:51:41.612Z,97125.88
2022-09-12T15:54:11.726Z,97117.69
2022-09-12T15:56:41.218Z,97119.13
2022-09-12T15:59:11.311Z,97116.47
2022-09-12T16:01:39.733Z,97120.59
2022-09-12T16:04:21.277Z,97119.59
2022-09-12T16:06:49.898Z,97122.06
2022-09-12T16:09:18.844Z,97121.91
2022-09-12T16:11:47.843Z,97123.56
2022-09-12T16:14:18.841Z,97121.72
2022-09-12T16:16:53.736Z,97122.34
2022-09-12T16:19:22.454Z,97120.31
2022-09-12T16:21:50.879Z,97119.31
2022-09-12T16:24:19.330Z,97117.00
2022-09-12T16:26:47.734Z,97104.69
2022-09-12T16:29:17.599Z,97110.38
2022-09-12T16:31:47.255Z,97105.03
2022-09-12T16:34:16.142Z,97106.69
2022-09-12T16:36:45.355Z,97110.00
2022-09-12T16:39:13.953Z,97108.00
2022-09-12T16:41:42.730Z,97097.94
2022-09-12T16:44:11.391Z,97100.63
2022-09-12T16:46:42.437Z,97103.66
2022-09-12T16:49:11.989Z,97106.50
2022-09-12T16:51:43.841Z,97103.00
2022-09-12T16:54:13.956Z,97105.88
2022-09-12T16:56:42.802Z,97105.41
2022-09-12T16:59:16.167Z,97101.28
2022-09-12T17:01:46.165Z,97098.78
2022-09-12T17:04:14.713Z,97091.00
2022-09-12T17:06:44.058Z,97101.28
2022-09-12T17:09:18.405Z,97106.59
2022-09-12T17:11:49.580Z,97092.00
2022-09-12T17:14:17.988Z,97093.66
2022-09-12T17:16:51.736Z,97093.84
2022-09-12T17:19:22.550Z,97099.19
2022-09-12T17:21:50.909Z,97104.34
2022-09-12T17:24:21.223Z,97108.84
2022-09-12T17:26:50.308Z,97101.66
2022-09-12T17:29:19.397Z,97097.78
2022-09-12T17:31:49.190Z,97097.41
2022-09-12T17:34:18.265Z,97099.00
2022-09-12T17:36:48.432Z,97092.38
2022-09-12T17:39:17.075Z,97096.69
2022-09-12T17:41:46.051Z,97096.88
2022-09-12T17:44:15.976Z,97102.03
2022-09-12T17:46:44.869Z,97100.19
2022-09-12T17:49:16.118Z,97102.41
2022-09-12T17:51:45.042Z,97097.91
2022-09-12T17:54:15.709Z,97096.06
2022-09-12T17:56:45.507Z,97088.22
2022-09-12T17:59:15.813Z,97088.03
2022-09-12T18:02:06.486Z,97095.41
2022-09-12T18:04:37.523Z,97092.91
2022-09-12T18:07:09.779Z,97099.09
2022-09-12T18:09:39.535Z,97108.09
2022-09-12T18:12:08.780Z,97102.97
2022-09-12T18:14:37.652Z,97098.44
2022-09-12T18:17:08.674Z,97096.59
2022-09-12T18:19:39.650Z,97090.44
2022-09-12T18:22:15.406Z,97094.13
2022-09-12T18:24:44.630Z,97090.44
2022-09-12T18:27:13.043Z,97093.09
2022-09-12T18:29:41.466Z,97088.97
2022-09-12T18:32:10.906Z,97094.03
2022-09-12T18:34:41.246Z,97101.19
2022-09-12T18:37:09.622Z,97115.38
2022-09-12T18:39:40.884Z,97115.38
2022-09-12T18:42:09.315Z,97112.06
2022-09-12T18:44:37.727Z,97108.38
2022-09-12T18:47:06.757Z,97114.72
2022-09-12T18:49:35.618Z,97108.75
2022-09-12T18:52:07.580Z,97114.09
2022-09-12T18:54:37.343Z,97115.28
2022-09-12T18:57:05.924Z,97116.09
2022-09-12T18:59:34.482Z,97122.44
2022-09-12T19:02:03.039Z,97124.09
2022-09-12T19:04:33.202Z,97118.78
2022-09-12T19:07:02.173Z,97118.59
2022-09-12T19:09:32.039Z,97123.94
2022-09-12T19:12:00.710Z,97119.41
2022-09-12T19:14:30.269Z,97120.63
2022-09-12T19:16:59.709Z,97117.13
2022-09-12T19:19:28.718Z,97123.47
2022-09-12T19:21:57.344Z,97121.94
2022-09-12T19:24:26.809Z,97118.63
2022-09-12T19:26:58.946Z,97126.66
2022-09-12T19:29:28.891Z,97127.47
2022-09-12T19:31:57.562Z,97124.16
2022-09-12T19:34:26.033Z,97120.47
2022-09-12T19:36:54.599Z,97122.13
2022-09-12T19:39:23.943Z,97126.47
2022-09-12T19:41:53.412Z,97124.81
2022-09-12T19:44:23.738Z,97108.78
2022-09-12T19:46:52.687Z,97117.81
2022-09-12T19:49:22.170Z,97120.47
2022-09-12T19:51:50.599Z,97122.13
2022-09-12T19:54:20.158Z,97112.47
2022-09-12T19:56:48.649Z,97105.47
2022-09-12T19:59:17.111Z,97100.97
2022-09-12T20:01:47.119Z,97102.81
2022-09-12T20:04:17.565Z,97104.47
2022-09-12T20:06:46.402Z,97107.13
2022-09-12T20:09:14.813Z,97104.66
2022-09-12T20:11:43.256Z,97108.31
2022-09-12T20:14:11.707Z,97109.16
2022-09-12T20:16:41.885Z,97112.66
2022-09-12T20:19:11.973Z,97115.13
2022-09-12T20:21:41.116Z,97110.16
2022-09-12T20:24:12.969Z,97113.00
2022-09-12T20:26:41.667Z,97112.56
2022-09-12T20:29:11.932Z,97102.53
2022-09-12T20:31:41.832Z,97103.72
2022-09-12T20:34:15.551Z,97101.22
2022-09-12T20:36:43.988Z,97103.91
2022-09-12T20:39:14.833Z,97102.25
2022-09-12T20:41:43.371Z,97097.72
2022-09-12T20:44:12.409Z,97091.56
2022-09-12T20:46:40.967Z,97097.09
2022-09-12T20:49:16.229Z,97089.91
2022-09-12T20:51:45.177Z,97099.75
2022-09-12T20:54:14.032Z,97093.59
2022-09-12T20:56:42.627Z,97090.91
2022-09-12T20:59:12.566Z,97097.28
2022-09-12T21:01:44.662Z,97082.91
2022-09-12T21:04:15.236Z,97088.44
2022-09-12T21:06:46.229Z,97086.97
2022-09-12T21:09:14.833Z,97089.81
2022-09-12T21:11:43.463Z,97087.97
2022-09-12T21:14:11.871Z,97093.31
2022-09-12T21:16:40.347Z,97090.63
2022-09-12T21:19:09.235Z,97084.47
2022-09-12T21:21:37.780Z,97094.31
2022-09-12T21:24:08.534Z,97085.47
2022-09-12T21:26:37.044Z,97078.50
2022-09-12T21:29:06.266Z,97081.16
2022-09-12T21:31:36.087Z,97077.84
2022-09-12T21:34:08.887Z,97086.03
2022-09-12T21:36:38.097Z,97078.03
2022-09-12T21:39:08.490Z,97095.03
2022-09-12T21:41:36.899Z,97099.34
2022-09-12T21:44:05.328Z,97087.03
2022-09-12T21:46:33.900Z,97086.38
2022-09-12T21:49:02.719Z,97091.72
2022-09-12T21:51:31.387Z,97083.72
2022-09-12T21:54:00.509Z,97097.22
2022-09-12T21:56:31.251Z,97092.09
2022-09-12T21:58:59.822Z,97100.09
2022-09-12T22:01:28.480Z,97103.56
2022-09-12T22:03:56.980Z,97093.91
2022-09-12T22:06:25.490Z,97096.59
2022-09-12T22:08:53.906Z,97093.09
2022-09-12T22:11:22.900Z,97092.25
2022-09-12T22:13:52.737Z,97085.91
2022-09-12T22:16:21.148Z,97080.59
2022-09-12T22:18:50.655Z,97079.75
2022-09-12T22:21:21.984Z,97078.75
2022-09-12T22:24:08.061Z,97092.09
2022-09-12T22:26:42.114Z,97084.63
2022-09-12T22:29:13.288Z,97087.00
2022-09-12T22:31:41.808Z,97078.34
2022-09-12T22:34:10.861Z,97075.91
2022-09-12T22:36:39.427Z,97068.06
2022-09-12T22:39:08.674Z,97065.22
2022-09-12T22:41:37.177Z,97063.75
2022-09-12T22:44:06.505Z,97065.59
2022-09-12T22:46:36.482Z,97056.13
2022-09-12T22:49:05.144Z,97071.94
2022-09-12T22:51:33.820Z,97073.28
2022-09-12T22:54:02.435Z,97055.00
2022-09-12T22:56:30.858Z,97058.50
2022-09-12T22:58:59.524Z,97050.03
2022-09-12T23:01:28.105Z,97047.34
2022-09-12T23:03:58.163Z,97036.03
2022-09-12T23:06:26.819Z,97043.22
2022-09-12T23:08:56.075Z,97037.06
2022-09-12T23:11:25.028Z,97030.06
2022-09-12T23:13:53.479Z,97032.06
2022-09-12T23:16:23.154Z,97038.41
2022-09-12T23:18:51.832Z,97041.91
2022-09-12T23:21:22.946Z,97047.25
2022-09-12T23:23:51.831Z,97045.75
2022-09-12T23:26:22.576Z,97047.41
2022-09-12T23:28:52.799Z,97048.59
2022-09-12T23:31:21.557Z,97045.13
2022-09-12T23:33:50.555Z,97052.09
2022-09-12T23:36:19.012Z,97044.09
2022-09-12T23:38:49.188Z,97040.97
2022-09-12T23:41:19.211Z,97027.66
2022-09-12T23:43:47.787Z,97027.66
2022-09-12T23:46:17.252Z,97014.50
2022-09-12T23:48:45.995Z,97022.66
2022-09-12T23:51:14.737Z,97013.84
2022-09-12T23:53:43.295Z,97022.81
2022-09-12T23:56:13.031Z,97007.19
2022-09-12T23:58:41.778Z,97007.19
